Time;durP1;ratioP1;P1;durP2;ratioP2;P2;SDS_P1;SDS_P2;PMS_P1;PMS_P2;Temp;Humidity;BMP_temperature;BMP_pressure;BME280_temperature;BME280_humidity;BME280_pressure;Samples;Min_cycle;Max_cycle;Signal;HPM_P1;HPM_P2
2021/12/03 00:02:00;;;;;;;4.95;2.53;;;23.50;58.70;;;;;;4924319;29;20290;-53
2021/12/03 00:04:32;;;;;;;4.68;2.42;;;23.40;58.60;;;;;;4926334;29;20247;-52
2021/12/03 00:07:03;;;;;;;4.65;2.47;;;23.50;58.60;;;;;;4920184;29;20298;-53
2021/12/03 00:09:35;;;;;;;3.45;2.38;;;23.50;58.50;;;;;;4931522;29;20206;-48
2021/12/03 00:12:06;;;;;;;4.03;2.17;;;23.60;58.60;;;;;;4932851;29;20721;-51
2021/12/03 00:14:37;;;;;;;4.65;2.30;;;23.60;58.50;;;;;;4931587;29;20207;-50
2021/12/03 00:17:07;;;;;;;4.40;2.40;;;23.70;58.50;;;;;;4930970;29;20229;-47
2021/12/03 00:19:40;;;;;;;4.10;2.40;;;23.70;58.40;;;;;;4931200;29;20230;-53
2021/12/03 00:22:10;;;;;;;5.43;2.50;;;23.70;58.40;;;;;;4931248;29;20203;-48
2021/12/03 00:24:41;;;;;;;3.35;2.30;;;23.80;58.40;;;;;;4924679;29;20283;-49
2021/12/03 00:27:11;;;;;;;3.97;2.55;;;23.80;58.30;;;;;;4923139;29;20286;-51
2021/12/03 00:29:42;;;;;;;3.47;2.20;;;23.80;58.30;;;;;;4929424;29;20636;-53
2021/12/03 00:32:12;;;;;;;4.22;2.40;;;23.90;58.30;;;;;;4919344;29;20653;-47
2021/12/03 00:34:45;;;;;;;4.95;2.85;;;23.90;58.30;;;;;;4932392;29;20274;-51
2021/12/03 00:37:15;;;;;;;4.55;2.33;;;24.00;58.20;;;;;;4914759;29;20322;-50
2021/12/03 00:39:46;;;;;;;3.33;2.50;;;24.00;58.10;;;;;;4916125;29;20263;-55
2021/12/03 00:42:17;;;;;;;4.53;2.22;;;24.10;58.10;;;;;;4929376;29;20302;-47
2021/12/03 00:44:52;;;;;;;3.05;2.15;;;24.10;58.10;;;;;;4930565;29;20204;-57
2021/12/03 00:47:23;;;;;;;3.70;1.83;;;24.10;57.90;;;;;;4918246;29;20230;-51
2021/12/03 00:49:55;;;;;;;4.22;2.30;;;24.20;58.00;;;;;;4921810;29;20225;-53
2021/12/03 00:52:27;;;;;;;3.78;2.30;;;24.20;57.90;;;;;;4931141;29;20204;-49
2021/12/03 00:54:57;;;;;;;3.15;2.00;;;24.30;57.90;;;;;;4930747;29;20214;-50
2021/12/03 00:57:28;;;;;;;2.42;1.67;;;24.30;57.90;;;;;;4931486;29;20220;-51
2021/12/03 00:59:58;;;;;;;3.50;2.40;;;24.30;57.80;;;;;;4914415;29;21012;-53
2021/12/03 01:02:29;;;;;;;3.00;1.83;;;24.40;57.70;;;;;;4930366;29;20199;-53
2021/12/03 01:05:01;;;;;;;3.50;2.22;;;24.50;57.60;;;;;;4929622;29;20286;-46
2021/12/03 01:07:31;;;;;;;3.00;1.95;;;24.50;57.60;;;;;;4930550;29;20227;-51
2021/12/03 01:10:02;;;;;;;4.70;2.78;;;24.50;57.60;;;;;;4929449;29;20286;-51
2021/12/03 01:12:32;;;;;;;3.28;2.20;;;24.60;57.50;;;;;;4926450;29;20294;-50
2021/12/03 01:15:03;;;;;;;3.42;2.25;;;24.70;57.50;;;;;;4919550;29;20322;-55
2021/12/03 01:17:33;;;;;;;2.45;2.00;;;24.70;57.50;;;;;;4929611;29;20254;-55
2021/12/03 01:20:08;;;;;;;3.20;1.80;;;24.70;57.40;;;;;;4930829;29;20716;-52
2021/12/03 01:22:39;;;;;;;4.13;2.00;;;24.80;57.30;;;;;;4913712;29;20291;-49
2021/12/03 01:25:12;;;;;;;3.08;2.10;;;24.80;57.30;;;;;;4930797;29;20282;-52
2021/12/03 01:27:43;;;;;;;3.35;2.13;;;24.80;57.20;;;;;;4930343;29;20627;-51
2021/12/03 01:30:17;;;;;;;3.60;1.90;;;24.90;57.30;;;;;;4921981;29;20224;-49
2021/12/03 01:32:48;;;;;;;2.53;1.83;;;24.90;57.10;;;;;;4928807;29;20685;-53
2021/12/03 01:35:22;;;;;;;3.17;2.03;;;25.00;57.10;;;;;;4930312;29;20290;-50
2021/12/03 01:37:53;;;;;;;3.72;2.13;;;25.00;57.00;;;;;;4929052;29;20226;-56
2021/12/03 01:40:25;;;;;;;2.47;2.00;;;25.10;57.00;;;;;;4929919;29;20287;-50
2021/12/03 01:42:56;;;;;;;2.03;1.83;;;25.10;56.90;;;;;;4930482;29;20231;-54
2021/12/03 01:45:28;;;;;;;2.65;1.80;;;25.10;56.80;;;;;;4931391;29;20290;-52
2021/12/03 01:48:00;;;;;;;2.38;1.75;;;25.20;56.80;;;;;;4930993;29;20223;-51
2021/12/03 01:50:35;;;;;;;2.80;1.75;;;25.20;56.70;;;;;;4931488;29;20294;-51
2021/12/03 01:53:06;;;;;;;2.17;1.55;;;25.30;56.60;;;;;;4921807;29;20204;-51
2021/12/03 01:55:37;;;;;;;2.20;1.77;;;25.30;56.60;;;;;;4928906;29;20867;-48
2021/12/03 01:58:08;;;;;;;2.67;1.90;;;25.30;56.50;;;;;;4933773;29;20221;-50
2021/12/03 02:00:42;;;;;;;3.38;2.10;;;25.40;56.60;;;;;;4933213;29;20231;-57
2021/12/03 02:03:16;;;;;;;3.03;1.88;;;25.50;56.60;;;;;;4931895;29;20207;-56
2021/12/03 02:05:48;;;;;;;3.25;1.70;;;25.50;57.20;;;;;;4933167;29;20724;-48
2021/12/03 02:08:19;;;;;;;3.20;1.98;;;25.50;56.50;;;;;;4934215;29;20245;-51
2021/12/03 02:10:50;;;;;;;2.08;1.60;;;25.50;56.30;;;;;;4934045;29;20302;-48
2021/12/03 02:13:20;;;;;;;2.85;1.75;;;25.50;56.30;;;;;;4933669;29;20283;-55
2021/12/03 02:15:51;;;;;;;2.40;1.63;;;25.60;56.80;;;;;;4933162;29;20286;-50
2021/12/03 02:18:22;;;;;;;2.15;1.67;;;25.60;56.20;;;;;;4929956;29;20224;-51
2021/12/03 02:20:57;;;;;;;2.15;1.60;;;25.60;56.10;;;;;;4929720;29;20326;-56
2021/12/03 02:23:29;;;;;;;2.40;1.90;;;25.70;56.20;;;;;;4933438;29;20289;-50
2021/12/03 02:26:00;;;;;;;2.83;1.65;;;25.70;56.10;;;;;;4932650;29;20688;-53
2021/12/03 02:28:33;;;;;;;2.03;1.58;;;25.70;56.10;;;;;;4931987;29;20306;-54
2021/12/03 02:31:04;;;;;;;2.08;1.63;;;25.80;56.10;;;;;;4934252;29;20286;-55
2021/12/03 02:33:35;;;;;;;2.63;1.70;;;25.80;56.10;;;;;;4934034;29;20195;-50
2021/12/03 02:36:08;;;;;;;1.92;1.60;;;25.80;56.00;;;;;;4933865;29;20287;-51
2021/12/03 02:38:39;;;;;;;4.28;1.70;;;25.90;55.90;;;;;;4919653;29;20227;-51
2021/12/03 02:41:09;;;;;;;2.17;1.65;;;25.90;55.90;;;;;;4930567;29;20314;-50
2021/12/03 02:43:40;;;;;;;2.42;1.75;;;26.00;56.00;;;;;;4929603;29;20297;-55
2021/12/03 02:46:11;;;;;;;2.17;1.50;;;26.00;55.90;;;;;;4925576;29;20715;-53
2021/12/03 02:48:41;;;;;;;1.85;1.50;;;26.00;55.90;;;;;;4931386;29;20311;-54
2021/12/03 02:51:14;;;;;;;1.88;1.50;;;26.00;55.70;;;;;;4931518;29;20286;-53
2021/12/03 02:53:44;;;;;;;1.90;1.42;;;26.10;55.60;;;;;;4933052;29;20279;-48
2021/12/03 02:56:15;;;;;;;2.42;1.65;;;26.10;55.50;;;;;;4933577;29;20299;-57
2021/12/03 02:58:45;;;;;;;2.42;1.75;;;26.10;55.40;;;;;;4933041;29;20310;-51
2021/12/03 03:01:16;;;;;;;2.50;1.60;;;26.10;55.40;;;;;;4924968;29;20568;-55
2021/12/03 03:03:47;;;;;;;1.95;1.42;;;26.10;55.40;;;;;;4932129;29;20290;-50
2021/12/03 03:06:19;;;;;;;2.30;1.45;;;26.10;55.40;;;;;;4932670;29;20703;-51
2021/12/03 03:08:49;;;;;;;2.85;1.52;;;26.20;55.40;;;;;;4932593;29;20703;-56
2021/12/03 03:11:22;;;;;;;2.47;1.70;;;26.20;55.40;;;;;;4931148;29;20290;-50
2021/12/03 03:13:52;;;;;;;1.92;1.30;;;26.20;55.40;;;;;;4931999;29;21178;-50
2021/12/03 03:16:23;;;;;;;1.58;1.30;;;26.20;55.40;;;;;;4932506;29;20204;-49
2021/12/03 03:18:54;;;;;;;1.42;1.17;;;26.20;55.50;;;;;;4931869;29;20772;-50
2021/12/03 03:21:28;;;;;;;2.45;1.50;;;26.30;55.50;;;;;;4922999;29;20231;-54
2021/12/03 03:23:59;;;;;;;1.73;1.50;;;26.30;55.50;;;;;;4918652;29;20275;-49
2021/12/03 03:26:29;;;;;;;1.77;1.50;;;26.30;55.40;;;;;;4930327;29;20207;-48
2021/12/03 03:29:00;;;;;;;1.58;1.30;;;26.30;55.30;;;;;;4922848;29;20713;-46
2021/12/03 03:31:30;;;;;;;1.65;1.30;;;26.30;55.20;;;;;;4924833;29;20294;-49
2021/12/03 03:34:01;;;;;;;1.90;1.50;;;26.30;55.10;;;;;;4929265;29;20214;-53
2021/12/03 03:36:35;;;;;;;2.72;1.48;;;26.30;54.90;;;;;;4919188;29;20287;-53
2021/12/03 03:39:07;;;;;;;3.20;1.80;;;26.40;55.00;;;;;;4931780;29;20307;-53
2021/12/03 03:41:38;;;;;;;2.42;1.40;;;26.30;54.80;;;;;;4933547;29;20225;-54
2021/12/03 03:44:08;;;;;;;2.15;1.45;;;26.40;54.90;;;;;;4932190;29;20196;-50
2021/12/03 03:46:39;;;;;;;2.45;1.50;;;26.40;54.80;;;;;;4931005;29;20657;-52
2021/12/03 03:49:10;;;;;;;2.72;1.23;;;26.40;54.80;;;;;;4931460;29;20302;-49
2021/12/03 03:51:42;;;;;;;2.67;1.40;;;26.40;54.80;;;;;;4923940;29;20218;-53
2021/12/03 03:54:13;;;;;;;2.25;1.25;;;26.40;54.70;;;;;;4923681;29;20287;-48
2021/12/03 03:56:44;;;;;;;1.38;1.20;;;26.40;54.70;;;;;;4931751;29;20283;-51
2021/12/03 03:59:17;;;;;;;2.85;1.58;;;26.40;54.70;;;;;;4931480;29;20322;-47
2021/12/03 04:01:47;;;;;;;2.08;1.30;;;26.40;54.80;;;;;;4931319;29;20662;-49
2021/12/03 04:04:18;;;;;;;2.15;1.45;;;26.40;54.80;;;;;;4932550;29;20242;-49
2021/12/03 04:06:51;;;;;;;2.40;1.10;;;26.40;54.80;;;;;;4915841;29;20201;-54
2021/12/03 04:09:22;;;;;;;1.88;1.25;;;26.40;54.80;;;;;;4918339;29;20295;-53
2021/12/03 04:11:53;;;;;;;1.73;1.30;;;26.40;54.80;;;;;;4918727;29;20212;-47
2021/12/03 04:14:23;;;;;;;2.78;1.38;;;26.40;54.80;;;;;;4924741;29;20322;-51
2021/12/03 04:16:54;;;;;;;3.15;1.30;;;26.40;54.70;;;;;;4930806;29;20231;-57
2021/12/03 04:19:25;;;;;;;2.33;1.35;;;26.40;54.60;;;;;;4931012;29;20271;-54
2021/12/03 04:21:57;;;;;;;1.33;1.13;;;26.40;54.60;;;;;;4930523;29;20219;-48
2021/12/03 04:24:28;;;;;;;2.95;1.52;;;26.40;54.60;;;;;;4917879;29;20227;-48
2021/12/03 04:26:58;;;;;;;2.60;1.52;;;26.40;54.50;;;;;;4931792;29;20289;-48
2021/12/03 04:29:29;;;;;;;2.03;1.40;;;26.50;54.50;;;;;;4931725;29;20294;-53
2021/12/03 04:31:59;;;;;;;2.90;1.52;;;26.40;54.40;;;;;;4930087;29;20290;-52
2021/12/03 04:34:30;;;;;;;2.78;1.23;;;26.40;54.40;;;;;;4929257;29;20319;-50
2021/12/03 04:37:02;;;;;;;1.70;1.08;;;26.40;54.30;;;;;;4923203;29;20298;-49
2021/12/03 04:39:32;;;;;;;3.05;1.30;;;26.40;54.30;;;;;;4918900;29;20291;-56
2021/12/03 04:42:03;;;;;;;2.35;1.10;;;26.40;54.40;;;;;;4921518;29;20219;-54
2021/12/03 04:44:34;;;;;;;2.60;1.20;;;26.40;54.40;;;;;;4929467;29;20206;-55
2021/12/03 04:47:05;;;;;;;1.90;1.30;;;26.40;54.40;;;;;;4921468;29;20836;-49
2021/12/03 04:49:36;;;;;;;2.17;1.20;;;26.40;54.50;;;;;;4931361;29;20722;-52
2021/12/03 04:52:09;;;;;;;1.92;1.10;;;26.40;54.50;;;;;;4931286;29;20195;-52
2021/12/03 04:54:39;;;;;;;1.42;1.13;;;26.30;54.50;;;;;;4931057;29;20203;-50
2021/12/03 04:57:10;;;;;;;2.03;1.50;;;26.30;54.50;;;;;;4930687;29;20213;-51
2021/12/03 04:59:40;;;;;;;2.28;1.25;;;26.30;54.40;;;;;;4924426;29;20307;-57
2021/12/03 05:02:11;;;;;;;2.38;1.30;;;26.30;54.30;;;;;;4923074;29;20215;-51
2021/12/03 05:04:41;;;;;;;2.03;1.23;;;26.40;54.30;;;;;;4930387;29;20227;-50
2021/12/03 05:07:31;;;;;;;1.80;1.33;;;26.40;54.30;;;;;;4930412;29;20210;-47
2021/12/03 05:10:02;;;;;;;2.40;1.58;;;26.40;54.30;;;;;;4916774;29;20196;-49
2021/12/03 05:12:32;;;;;;;1.63;1.00;;;26.30;54.20;;;;;;4914859;29;20306;-50
2021/12/03 05:15:03;;;;;;;2.70;1.52;;;26.40;54.30;;;;;;4928949;29;20589;-55
2021/12/03 05:17:33;;;;;;;2.17;1.23;;;26.30;54.20;;;;;;4930373;29;20310;-52
2021/12/03 05:20:04;;;;;;;1.63;1.08;;;26.30;54.20;;;;;;4930178;29;20635;-55
2021/12/03 05:22:36;;;;;;;2.88;1.40;;;26.30;54.10;;;;;;4928628;29;20223;-56
2021/12/03 05:25:13;;;;;;;2.25;1.33;;;26.30;54.10;;;;;;4930980;29;20282;-54
2021/12/03 05:27:43;;;;;;;1.55;1.10;;;26.30;54.10;;;;;;4934231;29;20219;-56
2021/12/03 05:30:14;;;;;;;1.75;1.15;;;26.30;54.10;;;;;;4933236;29;20214;-48
2021/12/03 05:32:45;;;;;;;2.22;1.27;;;26.20;54.00;;;;;;4933465;29;20210;-50
2021/12/03 05:35:16;;;;;;;2.67;1.20;;;26.20;54.00;;;;;;4920698;29;20286;-57
2021/12/03 05:37:49;;;;;;;3.47;1.73;;;26.30;54.10;;;;;;4917260;29;20690;-56
2021/12/03 05:40:20;;;;;;;7.28;2.40;;;26.20;53.90;;;;;;4934856;29;20286;-57
2021/12/03 05:42:51;;;;;;;8.85;2.25;;;26.20;53.60;;;;;;4933537;29;20318;-52
2021/12/03 05:45:24;;;;;;;4.78;2.05;;;26.20;53.30;;;;;;4923155;29;20299;-56
2021/12/03 05:47:55;;;;;;;5.38;1.90;;;26.20;53.00;;;;;;4929683;29;20759;-55
2021/12/03 05:50:26;;;;;;;3.88;1.55;;;26.10;52.60;;;;;;4932472;29;20290;-49
2021/12/03 05:53:00;;;;;;;4.45;1.83;;;26.10;52.40;;;;;;4933433;29;20287;-52
2021/12/03 05:55:30;;;;;;;2.83;1.50;;;26.00;52.20;;;;;;4931033;29;20207;-54
2021/12/03 05:58:01;;;;;;;3.67;1.42;;;26.00;52.20;;;;;;4919488;29;20224;-56
2021/12/03 06:00:34;;;;;;;3.20;1.50;;;26.00;52.20;;;;;;4924169;29;20287;-50
2021/12/03 06:03:04;;;;;;;3.28;1.30;;;26.00;52.30;;;;;;4933830;29;20310;-49
2021/12/03 06:05:35;;;;;;;3.35;1.48;;;25.90;52.20;;;;;;4933887;29;20203;-54
2021/12/03 06:08:08;;;;;;;2.38;1.30;;;25.90;52.30;;;;;;4922518;29;20226;-53
2021/12/03 06:10:39;;;;;;;2.80;1.23;;;25.90;52.40;;;;;;4928342;29;20207;-55
2021/12/03 06:13:09;;;;;;;2.80;1.30;;;25.80;52.40;;;;;;4932957;29;20286;-55
2021/12/03 06:15:40;;;;;;;3.60;1.50;;;25.80;52.50;;;;;;4933032;29;20286;-48
2021/12/03 06:18:10;;;;;;;2.75;1.20;;;25.80;52.50;;;;;;4931953;29;20302;-54
2021/12/03 06:20:41;;;;;;;3.42;1.10;;;25.80;52.50;;;;;;4933838;29;20221;-52
2021/12/03 06:23:13;;;;;;;4.28;1.20;;;25.80;52.60;;;;;;4933821;29;20317;-51
2021/12/03 06:25:43;;;;;;;2.38;1.20;;;25.80;52.60;;;;;;4933724;29;20286;-52
2021/12/03 06:28:14;;;;;;;2.90;1.50;;;25.70;52.60;;;;;;4933328;29;20223;-56
2021/12/03 06:30:45;;;;;;;3.53;1.60;;;25.70;52.80;;;;;;4932076;29;20318;-53
2021/12/03 06:33:15;;;;;;;2.55;1.00;;;25.70;52.80;;;;;;4931931;29;20632;-57
2021/12/03 06:35:45;;;;;;;2.83;1.42;;;25.80;52.90;;;;;;4931486;29;20287;-55
2021/12/03 06:38:18;;;;;;;6.97;1.65;;;25.70;52.90;;;;;;4930266;29;20314;-53
2021/12/03 06:40:49;;;;;;;3.42;1.30;;;25.70;52.80;;;;;;4932519;29;20283;-52
2021/12/03 06:43:20;;;;;;;2.97;1.25;;;25.70;52.90;;;;;;4919410;29;20233;-55
2021/12/03 06:45:51;;;;;;;4.43;1.30;;;25.70;52.90;;;;;;4933806;29;20292;-54
2021/12/03 06:48:21;;;;;;;3.00;1.30;;;25.70;52.80;;;;;;4932621;29;20227;-57
2021/12/03 06:50:52;;;;;;;2.35;1.08;;;25.70;52.90;;;;;;4932218;29;20287;-52
2021/12/03 06:53:27;;;;;;;3.70;1.48;;;25.70;52.90;;;;;;4931976;29;20349;-52
2021/12/03 06:56:04;;;;;;;3.10;1.27;;;25.70;52.80;;;;;;4934254;29;20225;-57
2021/12/03 06:58:34;;;;;;;3.67;1.27;;;25.70;52.90;;;;;;4931938;29;20230;-50
2021/12/03 07:01:06;;;;;;;2.72;1.08;;;25.70;52.90;;;;;;4920400;29;20705;-54
2021/12/03 07:03:38;;;;;;;4.38;1.80;;;25.60;53.00;;;;;;4924871;29;20203;-53
2021/12/03 07:06:09;;;;;;;1.95;1.10;;;25.60;53.10;;;;;;4931505;29;20204;-53
2021/12/03 07:08:41;;;;;;;3.78;1.33;;;25.60;53.00;;;;;;4920184;29;20302;-50
2021/12/03 07:11:12;;;;;;;1.75;1.13;;;25.60;52.90;;;;;;4916578;29;20299;-53
2021/12/03 07:13:42;;;;;;;2.25;0.95;;;25.60;53.00;;;;;;4933241;29;20295;-50
2021/12/03 07:16:12;;;;;;;3.05;1.08;;;25.60;53.00;;;;;;4923711;29;20294;-57
2021/12/03 07:18:43;;;;;;;3.88;1.20;;;25.60;53.00;;;;;;4930639;29;20259;-56
2021/12/03 07:21:13;;;;;;;1.98;1.10;;;25.60;53.10;;;;;;4932062;29;20286;-56
2021/12/03 07:23:47;;;;;;;3.00;1.10;;;25.60;53.10;;;;;;4931977;29;20723;-52
2021/12/03 07:26:18;;;;;;;3.28;1.10;;;25.60;53.10;;;;;;4922776;29;20686;-57
2021/12/03 07:28:48;;;;;;;2.88;1.25;;;25.60;53.70;;;;;;4931215;29;21659;-53
2021/12/03 07:31:19;;;;;;;3.33;1.20;;;25.60;53.10;;;;;;4932895;29;20282;-52
2021/12/03 07:33:53;;;;;;;2.97;1.10;;;25.60;53.10;;;;;;4931508;29;20203;-56
2021/12/03 07:36:23;;;;;;;2.40;1.08;;;25.50;53.10;;;;;;4931998;29;20203;-50
2021/12/03 07:38:56;;;;;;;1.88;0.80;;;25.50;53.00;;;;;;4931754;29;20315;-53
2021/12/03 07:41:26;;;;;;;3.42;1.10;;;25.50;53.00;;;;;;4931827;29;20286;-50
2021/12/03 07:43:56;;;;;;;1.98;1.00;;;25.50;53.10;;;;;;4931697;29;20243;-55
2021/12/03 07:46:27;;;;;;;2.30;1.00;;;25.50;53.10;;;;;;4931822;29;20203;-54
2021/12/03 07:48:57;;;;;;;2.50;1.08;;;25.50;53.10;;;;;;4931393;29;20229;-54
2021/12/03 07:51:28;;;;;;;2.20;0.95;;;25.50;53.10;;;;;;4932207;29;20287;-53
2021/12/03 07:54:00;;;;;;;1.42;0.90;;;25.50;53.10;;;;;;4918089;29;20748;-51
2021/12/03 07:56:31;;;;;;;1.55;1.20;;;25.50;53.20;;;;;;4916323;29;20283;-50
2021/12/03 07:59:01;;;;;;;1.58;0.80;;;25.50;53.20;;;;;;4931178;29;20302;-58
2021/12/03 08:01:32;;;;;;;1.92;0.90;;;25.50;53.20;;;;;;4919544;29;20756;-50
2021/12/03 08:04:02;;;;;;;1.65;1.02;;;25.60;53.20;;;;;;4929622;29;20199;-52
2021/12/03 08:06:33;;;;;;;3.55;1.10;;;25.50;53.20;;;;;;4923388;29;20541;-52
2021/12/03 08:09:05;;;;;;;2.55;0.95;;;25.50;53.20;;;;;;4922628;29;20219;-48
2021/12/03 08:11:36;;;;;;;5.68;1.25;;;25.50;53.10;;;;;;4930212;29;20298;-47
2021/12/03 08:14:06;;;;;;;1.58;1.00;;;25.50;53.10;;;;;;4924627;29;20208;-47
2021/12/03 08:16:37;;;;;;;1.75;0.82;;;25.50;53.00;;;;;;4925814;29;20206;-46
2021/12/03 08:19:08;;;;;;;2.15;0.73;;;25.50;53.00;;;;;;4928472;29;20827;-53
2021/12/03 08:21:38;;;;;;;2.20;0.85;;;25.50;52.80;;;;;;4927857;29;20206;-52
2021/12/03 08:24:11;;;;;;;1.45;0.70;;;25.40;52.70;;;;;;4928224;29;20691;-47
2021/12/03 08:26:41;;;;;;;0.95;0.65;;;25.30;52.60;;;;;;4927817;29;20330;-48
2021/12/03 08:29:12;;;;;;;1.52;0.80;;;25.30;52.50;;;;;;4929160;29;20310;-52
2021/12/03 08:31:42;;;;;;;2.33;0.80;;;25.30;52.60;;;;;;4930256;29;20707;-46
2021/12/03 08:34:13;;;;;;;2.10;0.60;;;25.30;52.60;;;;;;4927514;29;20221;-50
2021/12/03 08:36:43;;;;;;;1.33;0.57;;;25.30;52.60;;;;;;4929157;29;20206;-46
2021/12/03 08:39:16;;;;;;;3.10;0.90;;;25.30;52.60;;;;;;4927555;29;20232;-54
2021/12/03 08:41:46;;;;;;;1.70;0.93;;;25.20;52.50;;;;;;4930058;29;20641;-52
2021/12/03 08:44:17;;;;;;;1.88;0.80;;;25.20;52.50;;;;;;4927743;29;20211;-46
2021/12/03 08:46:51;;;;;;;2.50;0.90;;;25.20;52.50;;;;;;4928975;29;20752;-50
2021/12/03 08:49:30;;;;;;;2.92;0.95;;;25.20;52.50;;;;;;4928238;29;20202;-49
2021/12/03 08:52:23;;;;;;;2.50;1.00;;;25.20;52.50;;;;;;4929538;29;20266;-46
2021/12/03 08:54:55;;;;;;;4.78;0.73;;;25.20;52.50;;;;;;4928446;29;20202;-46
2021/12/03 08:57:27;;;;;;;1.83;0.80;;;25.20;52.50;;;;;;4928187;29;20225;-51
2021/12/03 08:59:59;;;;;;;2.25;1.00;;;25.10;52.40;;;;;;4927339;29;20740;-47
2021/12/03 09:02:30;;;;;;;3.15;0.90;;;25.10;52.40;;;;;;4927726;29;20812;-52
2021/12/03 09:05:00;;;;;;;1.88;0.70;;;25.10;52.40;;;;;;4927487;29;20298;-50
2021/12/03 09:07:31;;;;;;;1.25;0.80;;;25.10;52.60;;;;;;4928977;29;20255;-49
2021/12/03 09:10:04;;;;;;;3.13;0.98;;;25.10;52.60;;;;;;4929354;29;20283;-51
2021/12/03 09:12:34;;;;;;;1.88;0.70;;;25.10;52.60;;;;;;4928402;29;20715;-54
2021/12/03 09:15:07;;;;;;;3.03;0.73;;;25.10;52.60;;;;;;4927309;29;20207;-52
2021/12/03 09:17:44;;;;;;;1.98;0.90;;;25.10;52.70;;;;;;4927672;29;20215;-49
2021/12/03 09:20:30;;;;;;;2.72;1.00;;;25.10;52.70;;;;;;4927091;29;20246;-50
2021/12/03 09:23:03;;;;;;;2.50;0.80;;;25.10;52.70;;;;;;4928574;29;20235;-51
2021/12/03 09:25:38;;;;;;;1.98;0.63;;;25.10;52.70;;;;;;4929087;29;20234;-55
2021/12/03 09:28:12;;;;;;;1.70;0.80;;;25.10;52.70;;;;;;4926211;29;20226;-51
2021/12/03 09:30:44;;;;;;;2.00;0.70;;;25.10;52.70;;;;;;4927289;29;20697;-52
2021/12/03 09:33:17;;;;;;;1.73;0.80;;;25.10;52.70;;;;;;4927670;29;20208;-51
2021/12/03 09:35:51;;;;;;;2.63;0.82;;;25.10;52.80;;;;;;4927906;29;20196;-47
2021/12/03 09:38:21;;;;;;;1.50;0.80;;;25.00;52.70;;;;;;4928434;29;20215;-49
2021/12/03 09:40:54;;;;;;;1.17;0.60;;;25.10;52.90;;;;;;4928330;29;20210;-50
2021/12/03 09:43:24;;;;;;;1.20;0.68;;;25.00;52.80;;;;;;4928264;29;20306;-47
2021/12/03 09:46:02;;;;;;;2.28;0.80;;;25.00;52.80;;;;;;4927361;29;20231;-47
2021/12/03 09:48:42;;;;;;;1.95;1.00;;;25.00;52.80;;;;;;4928508;29;20219;-49
2021/12/03 09:51:13;;;;;;;1.65;0.70;;;24.90;52.80;;;;;;4926799;29;20204;-48
2021/12/03 09:56:33;;;;;;;2.10;0.90;;;24.90;52.80;;;;;;4919943;29;20204;-50
2021/12/03 10:02:01;;;;;;;0.70;0.70;;;24.90;52.90;;;;;;4911366;29;20234;-46
2021/12/03 10:13:15;;;;;;;1.23;0.50;;;24.90;53.00;;;;;;4890170;29;20257;-46
2021/12/03 10:15:57;;;;;;;1.95;0.80;;;24.90;53.60;;;;;;4924381;29;20207;-46
2021/12/03 10:18:43;;;;;;;1.38;0.73;;;24.90;53.00;;;;;;4932293;29;20223;-48
2021/12/03 10:21:38;;;;;;;0.82;0.50;;;24.90;53.00;;;;;;4932816;29;20262;-48
2021/12/03 10:30:24;;;;;;;0.98;0.57;;;24.80;53.00;;;;;;4923299;29;20219;-46
2021/12/03 10:33:25;;;;;;;0.55;0.35;;;24.80;53.00;;;;;;4932613;29;20215;-46
2021/12/03 10:36:21;;;;;;;1.52;0.47;;;24.80;53.00;;;;;;4930302;29;20203;-50
2021/12/03 10:39:06;;;;;;;0.73;0.50;;;24.70;53.00;;;;;;4929119;29;20223;-47
2021/12/03 10:41:46;;;;;;;1.10;0.50;;;24.70;53.00;;;;;;4931824;29;20602;-46
2021/12/03 10:44:28;;;;;;;2.45;0.70;;;24.70;53.00;;;;;;4931092;29;20318;-46
2021/12/03 10:47:08;;;;;;;0.85;0.43;;;24.70;53.10;;;;;;4929006;29;20203;-48
2021/12/03 10:49:48;;;;;;;1.67;0.60;;;24.70;53.10;;;;;;4931062;29;20200;-47
2021/12/03 10:52:26;;;;;;;0.70;0.40;;;24.60;53.10;;;;;;4930951;29;20377;-49
2021/12/03 11:01:07;;;;;;;0.60;0.55;;;24.60;53.20;;;;;;4923860;29;20210;-46
2021/12/03 11:06:54;;;;;;;0.77;0.60;;;24.60;53.20;;;;;;4929611;29;20207;-48
2021/12/03 11:18:32;;;;;;;1.42;0.60;;;24.60;53.20;;;;;;4930938;29;20219;-52
2021/12/03 11:38:15;;;;;;;0.77;0.50;;;24.50;53.30;;;;;;4909379;29;20227;-47
2021/12/03 11:59:14;;;;;;;0.45;0.40;;;24.40;53.40;;;;;;4929506;29;20227;-46
2021/12/03 13:09:31;;;;;;;0.77;0.30;;;24.00;53.70;;;;;;4930545;29;20715;-46
2021/12/03 14:38:43;;;;;;;2.25;0.45;;;23.80;53.80;;;;;;5059631;28;20233;-44
2021/12/03 14:41:56;;;;;;;0.80;0.50;;;23.80;53.80;;;;;;5074220;28;20199;-44
2021/12/03 14:44:30;;;;;;;0.68;0.43;;;23.80;53.80;;;;;;5073492;28;20293;-44
2021/12/03 14:47:34;;;;;;;0.57;0.30;;;23.80;53.80;;;;;;5082906;28;20200;-44
2021/12/03 14:53:11;;;;;;;0.50;0.40;;;23.80;53.80;;;;;;5071974;28;20195;-44
2021/12/03 14:55:47;;;;;;;0.63;0.40;;;23.80;53.70;;;;;;5072851;28;20191;-44
2021/12/03 14:58:20;;;;;;;0.45;0.30;;;23.80;53.70;;;;;;5086482;28;20228;-44
2021/12/03 15:00:58;;;;;;;0.60;0.50;;;23.80;53.70;;;;;;5075407;28;20207;-46
2021/12/03 15:03:45;;;;;;;1.25;0.40;;;23.80;53.70;;;;;;5074730;28;20654;-44
2021/12/03 15:06:31;;;;;;;0.40;0.40;;;23.80;53.70;;;;;;5076925;28;20191;-44
2021/12/03 15:09:07;;;;;;;0.35;0.35;;;23.80;53.70;;;;;;5074489;28;20230;-45
2021/12/03 15:25:51;;;;;;;0.55;0.43;;;23.70;53.70;;;;;;5081192;28;20274;-44
2021/12/03 15:31:16;;;;;;;0.30;0.30;;;23.70;53.80;;;;;;5073638;28;20273;-45
2021/12/03 15:33:52;;;;;;;0.45;0.38;;;23.70;53.70;;;;;;5076465;28;20231;-45
2021/12/03 15:36:31;;;;;;;0.50;0.38;;;23.70;53.80;;;;;;5084780;28;20234;-44
2021/12/03 15:39:37;;;;;;;0.40;0.40;;;23.70;53.70;;;;;;5073618;28;20247;-44
2021/12/03 16:03:28;;;;;;;0.38;0.30;;;23.70;53.60;;;;;;5080802;28;20238;-44
2021/12/03 16:04:21;;;;;;;0.35;0.32;;;23.60;53.70;;;;;;5072296;28;20205;-44
2021/12/03 16:07:03;;;;;;;0.60;0.40;;;23.70;53.80;;;;;;5090071;28;20247;-44
2021/12/03 16:10:01;;;;;;;0.50;0.35;;;23.60;53.70;;;;;;5088057;28;20286;-43
2021/12/03 16:12:44;;;;;;;0.50;0.30;;;23.60;53.70;;;;;;5070665;28;20735;-48
2021/12/03 16:15:29;;;;;;;0.25;0.25;;;23.60;53.60;;;;;;5072017;28;20191;-44
2021/12/03 16:23:50;;;;;;;0.40;0.35;;;23.60;53.60;;;;;;5040125;28;20207;-44
2021/12/03 16:26:39;;;;;;;0.73;0.40;;;23.60;53.60;;;;;;5071538;28;20203;-44
2021/12/03 16:46:11;;;;;;;0.40;0.30;;;23.60;53.60;;;;;;5070983;28;20339;-44
2021/12/03 16:51:33;;;;;;;0.40;0.40;;;23.50;53.50;;;;;;5071132;28;20240;-44
2021/12/03 16:54:08;;;;;;;0.40;0.40;;;23.50;53.60;;;;;;5071914;28;20300;-46
2021/12/03 16:56:43;;;;;;;0.30;0.20;;;23.50;53.60;;;;;;5081707;28;20276;-44
2021/12/03 16:59:14;;;;;;;0.43;0.20;;;23.50;53.60;;;;;;5078429;28;20244;-44
2021/12/03 17:01:48;;;;;;;0.38;0.20;;;23.50;53.50;;;;;;5072222;28;20195;-44
2021/12/03 17:12:47;;;;;;;0.30;0.30;;;23.60;53.50;;;;;;5063075;28;20191;-44
2021/12/03 17:48:58;;;;;;;0.50;0.30;;;23.40;53.30;;;;;;5078049;28;20229;-44
2021/12/03 17:57:10;;;;;;;0.30;0.30;;;23.40;53.80;;;;;;5083145;28;20281;-45
2021/12/03 17:59:43;;;;;;;0.20;0.20;;;23.50;53.20;;;;;;5070633;28;20285;-44
2021/12/03 18:02:21;;;;;;;0.20;0.20;;;23.40;53.10;;;;;;5071768;28;20222;-44
2021/12/03 18:05:12;;;;;;;0.20;0.20;;;23.40;53.10;;;;;;5082361;28;20198;-44
2021/12/03 18:07:53;;;;;;;1.30;0.25;;;23.40;53.10;;;;;;5072777;28;20854;-44
2021/12/03 18:10:36;;;;;;;0.20;0.20;;;23.40;53.10;;;;;;5070122;28;20234;-44
2021/12/03 18:44:03;;;;;;;0.30;0.20;;;23.40;53.10;;;;;;5075011;28;20214;-44
2021/12/03 18:49:44;;;;;;;0.43;0.30;;;23.40;53.10;;;;;;5074913;28;20913;-45
2021/12/03 18:52:32;;;;;;;0.30;0.30;;;23.40;53.10;;;;;;5074784;28;20286;-44
2021/12/03 18:55:04;;;;;;;0.52;0.50;;;23.40;53.00;;;;;;5073703;28;20194;-46
2021/12/03 18:57:41;;;;;;;0.50;0.45;;;23.40;53.10;;;;;;5075811;28;20678;-44
2021/12/03 19:00:15;;;;;;;0.70;0.40;;;23.30;53.00;;;;;;5097947;28;20198;-50
2021/12/03 19:02:50;;;;;;;0.40;0.28;;;23.30;53.10;;;;;;5074168;28;20220;-45
2021/12/03 19:05:28;;;;;;;0.52;0.40;;;23.30;53.10;;;;;;5071609;28;20214;-45
2021/12/03 19:08:05;;;;;;;1.02;0.40;;;23.30;53.10;;;;;;5071621;28;20215;-47
2021/12/03 19:10:42;;;;;;;0.43;0.40;;;23.30;53.10;;;;;;5072554;28;20225;-46
2021/12/03 19:13:15;;;;;;;0.20;0.20;;;23.30;53.10;;;;;;5072007;28;20205;-44
2021/12/03 19:15:48;;;;;;;0.30;0.30;;;23.30;53.10;;;;;;5073406;28;20824;-45
2021/12/03 19:18:22;;;;;;;0.28;0.20;;;23.30;53.10;;;;;;5073264;28;20710;-47
2021/12/03 19:20:53;;;;;;;0.50;0.40;;;23.30;53.10;;;;;;5072579;28;20252;-46
2021/12/03 19:23:24;;;;;;;0.25;0.25;;;23.40;53.10;;;;;;5075400;28;20286;-46
2021/12/03 19:25:54;;;;;;;0.60;0.30;;;23.40;53.10;;;;;;5071820;28;20201;-44
2021/12/03 19:28:24;;;;;;;0.28;0.28;;;23.40;53.20;;;;;;5079879;28;20233;-46
2021/12/03 19:30:57;;;;;;;0.50;0.22;;;23.30;53.00;;;;;;5077338;28;20219;-44
2021/12/03 19:33:29;;;;;;;0.35;0.30;;;23.40;53.00;;;;;;5079012;28;20197;-45
2021/12/03 19:35:59;;;;;;;0.40;0.40;;;23.30;53.00;;;;;;5076999;28;20281;-46